Latest Weather Observations for Pearce

IDW60901

Issued at 4:01 pm WST Monday 25 September 2017 (issued every 10 minutes, with the page automatically refreshed every 10 minutes)

About weather observations | Map of Perth area stations | Latest observations for Perth area | Other Formats
Station Details ID: 009053 Name: PEARCE RAAF Lat: -31.67 Lon: 116.02 Height: 40.0 m
Data from the previous 72 hours. | See also: Recent months at Pearce
Date/Time
WST
Temp
°C
App
Temp
°C
Dew
Point
°C
Rel
Hum
%
Delta-T
°C
Wind Press
QNH
hPa
Press
MSL
hPa
Rain since
9am
mm
Dir  Spd
km/h
Gust
km/h
Spd
kts
Gust
kts
25/04:00pm 14.1 10.7 9.1 72 2.6 SW 17 20 9 11 1004.2 1004.2 5.4
25/03:30pm 15.6 11.1 9.9 69 3.0 SSW 24 35 13 19 1003.6 1003.6 5.4
25/03:00pm 15.9 12.0 8.6 62 3.7 SSW 19 24 10 13 1003.5 1003.5 5.4
25/02:30pm 14.8 12.2 10.8 77 2.1 SSW 15 19 8 10 1003.4 1003.4 5.4
25/02:00pm 12.7 10.6 9.9 83 1.4 SSW 11 15 6 8 1003.2 1003.2 4.6
25/01:30pm 13.4 10.8 9.5 77 2.0 SSW 13 17 7 9 1002.9 1002.9 3.6
25/01:00pm 14.6 12.4 9.2 70 2.8 SE 11 15 6 8 1002.8 1002.8 3.4
25/12:49pm 14.3 12.2 9.7 74 2.4 SE 11 15 6 8 1002.8 1002.8 3.4
25/12:39pm 13.7 10.8 9.7 77 2.1 SE 15 20 8 11 1002.8 1002.8 3.4
25/12:30pm 14.3 11.5 10.1 76 2.2 SE 15 20 8 11 1003.0 1003.0 3.2
25/12:00pm 14.5 12.8 9.7 73 2.5 SE 9 13 5 7 1003.3 1003.3 3.2
25/11:30am 14.2 12.7 10.6 79 1.9 E 9 13 5 7 1003.6 1003.6 3.2
25/11:00am 12.3 10.0 10.4 88 1.0 NE 13 22 7 12 1003.5 1003.5 3.2
25/10:30am 11.7 8.9 9.9 89 0.9 NE 15 20 8 11 1004.0 1004.0 2.0
25/10:10am 11.3 7.1 9.6 89 0.9 NNE 22 30 12 16 1004.2 1004.2 1.6
25/10:00am 11.7 8.1 9.9 89 0.9 N 19 24 10 13 1004.3 1004.3 1.0
25/09:53am 11.8 7.2 9.7 87 1.1 N 24 32 13 17 1004.2 1004.2 0.8
25/09:30am 13.7 10.1 9.7 77 2.1 NNE 19 22 10 12 1003.9 1003.9 0.0
25/09:00am 12.6 9.7 9.6 82 1.5 N 15 20 8 11 1004.0 1004.0 11.0
25/08:30am 12.7 8.1 8.2 74 2.2 N 22 33 12 18 1003.7 1003.7 11.0
25/08:00am 12.0 7.5 8.5 79 1.7 N 22 33 12 18 1003.5 1003.5 11.0
25/07:30am 11.3 7.3 8.3 82 1.5 N 19 24 10 13 1003.4 1003.4 11.0
25/07:00am 10.5 6.7 7.7 83 1.4 NNE 17 26 9 14 1003.5 1003.5 11.0
25/06:30am 9.5 6.1 7.6 88 0.9 NNE 15 19 8 10 1003.2 1003.2 11.0
25/06:00am 9.6 5.8 7.7 88 0.9 NE 17 22 9 12 1003.1 1003.1 11.0
25/05:30am 9.7 6.8 8.1 90 0.8 N 13 19 7 10 1003.3 1003.3 11.0
25/05:00am 9.8 6.1 7.9 88 0.9 NNW 17 22 9 12 1003.5 1003.5 10.2
25/04:30am 9.9 5.9 8.2 89 0.8 N 19 24 10 13 1003.1 1003.1 10.0
25/04:00am 9.8 5.6 8.2 90 0.8 NNE 20 26 11 14 1003.1 1003.1 10.0
25/03:30am 9.7 5.5 8.3 91 0.7 NNE 20 26 11 14 1003.1 1003.1 9.8
25/03:00am 10.0 5.5 8.4 90 0.8 N 22 30 12 16 1003.3 1003.3 9.8
25/02:30am 9.9 6.3 8.2 89 0.8 NNE 17 24 9 13 1003.3 1003.3 9.6
25/02:00am 9.9 6.3 8.2 89 0.8 NNE 17 24 9 13 1003.4 1003.4 9.6
25/01:30am 9.4 5.3 7.7 89 0.8 NNE 19 24 10 13 1003.8 1003.8 9.6
25/01:00am 9.9 4.9 8.0 88 0.9 N 24 32 13 17 1003.7 1003.7 9.6
25/12:30am 10.0 7.2 8.6 91 0.7 NNW 13 17 7 9 1004.6 1004.6 8.8
25/12:00am 10.3 6.8 8.6 89 0.8 N 17 20 9 11 1004.2 1004.2 8.0
 
Date/Time
WST
Temp
°C
App
Temp
°C
Dew
Point
°C
Rel
Hum
%
Delta-T
°C
Wind Press
QNH
hPa
Press
MSL
hPa
Rain since
9am
mm
Dir  Spd
km/h
Gust
km/h
Spd
kts
Gust
kts
24/11:30pm 10.4 6.6 9.0 91 0.7 N 19 24 10 13 1004.4 1004.4 8.0
24/11:00pm 10.4 7.7 8.8 90 0.8 N 13 17 7 9 1004.9 1004.9 8.0
24/10:30pm 9.9 7.4 8.3 90 0.8 NNE 11 15 6 8 1004.9 1004.9 8.0
24/10:00pm 10.7 7.3 9.1 90 0.8 N 17 22 9 12 1005.3 1005.3 8.0
24/09:30pm 11.5 6.5 9.4 87 1.1 N 26 33 14 18 1005.5 1005.5 8.0
24/09:00pm 11.4 8.8 9.5 88 1.0 NNE 13 13 7 7 1005.5 1005.5 7.8
24/08:30pm 11.4 9.2 9.5 88 1.0 NNE 11 15 6 8 1005.4 1005.4 7.8
24/08:00pm 11.5 9.7 9.6 88 1.0 N 9 11 5 6 1005.4 1005.4 7.8
24/07:30pm 11.6 9.9 9.9 89 0.9 WNW 9 11 5 6 1005.3 1005.3 7.8
24/07:00pm 11.3 9.9 9.4 88 1.0 WNW 7 9 4 5 1005.4 1005.4 7.8
24/06:50pm 11.4 9.6 9.5 88 1.0 WNW 9 15 5 8 1005.5 1005.5 7.8
24/06:31pm 12.4 10.4 10.3 87 1.1 NNW 11 19 6 10 1005.5 1005.5 7.2
24/06:30pm 12.5 10.5 10.2 86 1.2 NNW 11 19 6 10 1005.4 1005.4 7.0
24/06:00pm 13.6 12.1 10.6 82 1.6 NNW 9 9 5 5 1005.0 1005.0 5.6
24/05:30pm 14.6 12.7 10.6 77 2.1 WNW 11 15 6 8 1005.1 1005.1 5.6
24/05:00pm 13.6 10.9 10.2 80 1.8 WSW 15 20 8 11 1004.7 1004.7 5.6
24/04:30pm 13.8 13.2 12.4 91 0.8 NNW 7 9 4 5 1004.9 1004.9 5.6
24/04:00pm 13.2 10.5 11.6 90 0.9 NNW 17 20 9 11 1005.0 1005.0 5.6
24/03:59pm 12.9 10.0 11.1 89 0.9 NNW 17 20 9 11 1005.0 1005.0 5.6
24/03:39pm 11.7 6.1 8.6 81 1.5 NNW 28 52 15 28 1004.9 1004.9 5.0
24/03:38pm 12.7 7.6 9.3 80 1.7 N 26 52 14 28 1004.8 1004.8 4.6
24/03:30pm 14.9 11.1 11.1 78 2.0 N 22 28 12 15 1003.9 1003.9 3.4
24/03:00pm 15.3 11.9 12.4 83 1.6 NNW 22 28 12 15 1004.5 1004.5 3.4
24/02:31pm 13.5 9.4 11.6 88 1.0 N 24 32 13 17 1004.9 1004.9 3.2
24/02:30pm 13.5 9.4 11.6 88 1.0 N 24 32 13 17 1004.9 1004.9 3.2
24/02:08pm 13.4 7.6 10.8 84 1.4 N 32 46 17 25 1005.1 1005.1 0.8
24/02:02pm 14.0 8.8 10.2 78 2.0 N 28 46 15 25 1004.9 1004.9 0.4
24/02:00pm 14.8 10.1 10.8 77 2.1 N 26 37 14 20 1004.9 1004.9 0.4
24/01:30pm 15.4 11.8 10.6 73 2.5 N 20 30 11 16 1005.2 1005.2 0.4
24/01:00pm 14.2 9.3 10.0 76 2.2 NNW 26 33 14 18 1006.0 1006.0 0.0
24/12:30pm 15.1 11.7 10.5 74 2.4 N 19 24 10 13 1006.1 1006.1 0.0
24/12:00pm 16.1 12.1 8.1 59 4.1 NNW 19 26 10 14 1006.2 1006.2 0.0
24/11:30am 16.0 12.0 8.2 60 4.0 N 19 24 10 13 1006.5 1006.5 0.0
24/11:00am 16.3 13.4 8.3 59 4.1 NNW 13 20 7 11 1006.9 1006.9 0.0
24/10:30am 16.0 13.2 8.7 62 3.7 N 13 17 7 9 1007.6 1007.6 0.0
24/10:00am 16.0 12.9 9.0 63 3.6 N 15 20 8 11 1007.8 1007.8 0.0
24/09:30am 15.3 12.8 9.7 69 2.9 NNW 13 19 7 10 1008.2 1008.2 0.0
24/09:00am 15.2 13.2 11.4 78 2.0 N 13 17 7 9 1008.4 1008.4 5.0
24/08:30am 14.3 11.4 11.1 81 1.7 N 17 20 9 11 1008.4 1008.4 5.0
24/08:00am 13.6 11.1 11.1 85 1.3 N 15 19 8 10 1008.4 1008.4 5.0
24/07:30am 12.7 10.6 11.1 90 0.8 NNE 13 15 7 8 1008.5 1008.5 5.0
24/07:00am 11.5 9.6 10.4 93 0.6 NE 11 17 6 9 1008.3 1008.3 5.0
24/06:30am 11.0 8.6 9.9 93 0.6 NE 13 19 7 10 1008.2 1008.2 5.0
24/06:26am 11.0 9.0 10.1 94 0.5 NNE 11 17 6 9 1008.2 1008.2 5.0
24/06:08am 11.1 9.5 10.2 94 0.5 NNE 9 11 5 6 1008.4 1008.4 5.0
24/06:00am 11.2 9.6 10.3 94 0.5 NNE 9 15 5 8 1008.6 1008.6 4.2
24/05:37am 10.9 9.2 10.0 94 0.5 NNE 9 15 5 8 1008.5 1008.5 4.0
24/05:30am 10.8 9.1 9.9 94 0.5 NNE 9 13 5 7 1008.5 1008.5 4.0
24/05:16am 10.8 9.1 9.9 94 0.5 NNE 9 13 5 7 1008.5 1008.5 3.4
24/05:00am 10.8 8.7 9.9 94 0.5 NNE 11 13 6 7 1008.5 1008.5 2.6
24/04:30am 10.7 8.2 9.6 93 0.6 N 13 17 7 9 1008.5 1008.5 2.6
24/04:00am 11.1 9.4 9.9 92 0.6 NE 9 13 5 7 1008.9 1008.9 2.2
24/03:30am 11.0 8.9 9.8 92 0.6 NE 11 17 6 9 1008.6 1008.6 2.2
24/03:00am 11.0 8.6 9.9 93 0.6 NE 13 15 7 8 1008.9 1008.9 2.0
24/02:30am 11.1 9.5 10.2 94 0.5 NNE 9 13 5 7 1009.5 1009.5 2.0
24/02:23am 11.1 10.0 10.0 93 0.6 NNW 6 9 3 5 1009.8 1009.8 2.0
24/02:09am 11.2 9.6 10.1 93 0.6 NNW 9 13 5 7 1010.2 1010.2 1.4
24/02:00am 11.3 9.7 10.2 93 0.6 WNW 9 13 5 7 1010.2 1010.2 1.0
24/01:30am 11.1 9.4 10.0 93 0.6 WSW 9 13 5 7 1010.2 1010.2 0.6
24/01:00am 11.0 9.7 9.9 93 0.6 WSW 7 9 4 5 1010.7 1010.7 0.6
24/12:30am 11.0 9.7 9.9 93 0.6 WSW 7 9 4 5 1010.7 1010.7 0.6
24/12:00am 11.1 8.5 9.5 90 0.8 NW 13 24 7 13 1011.3 1011.3 0.4
 
Date/Time
WST
Temp
°C
App
Temp
°C
Dew
Point
°C
Rel
Hum
%
Delta-T
°C
Wind Press
QNH
hPa
Press
MSL
hPa
Rain since
9am
mm
Dir  Spd
km/h
Gust
km/h
Spd
kts
Gust
kts
23/11:30pm 11.5 8.9 9.4 87 1.1 ENE 13 15 7 8 1010.8 1010.8 0.4
23/11:00pm 11.7 9.6 9.6 87 1.1 ENE 11 13 6 7 1011.3 1011.3 0.4
23/10:30pm 11.7 9.9 9.3 85 1.2 ENE 9 13 5 7 1011.6 1011.6 0.4
23/10:00pm 11.9 10.1 9.5 85 1.2 ENE 9 13 5 7 1012.2 1012.2 0.4
23/09:30pm 12.1 9.7 10.0 87 1.1 N 13 17 7 9 1012.7 1012.7 0.4
23/09:00pm 12.3 10.3 10.0 86 1.2 NW 11 15 6 8 1012.9 1012.9 0.4
23/08:30pm 12.5 10.3 9.5 82 1.5 NW 11 13 6 7 1013.2 1013.2 0.4
23/08:00pm 12.7 10.8 9.0 78 1.9 NW 9 13 5 7 1013.1 1013.1 0.4
23/07:30pm 13.4 10.9 8.0 70 2.7 WSW 11 15 6 8 1013.1 1013.1 0.4
23/07:00pm 13.9 11.8 8.3 69 2.8 WSW 9 15 5 8 1013.0 1013.0 0.4
23/06:30pm 13.9 11.9 8.5 70 2.7 SW 9 9 5 5 1013.0 1013.0 0.4
23/06:00pm 14.2 11.3 8.2 67 3.0 SW 13 17 7 9 1013.0 1013.0 0.4
23/05:30pm 14.9 11.9 7.9 63 3.5 W 13 17 7 9 1013.0 1013.0 0.4
23/05:00pm 15.1 10.9 8.1 63 3.5 WSW 20 24 11 13 1013.0 1013.0 0.4
23/04:30pm 15.6 11.5 7.9 60 3.9 W 19 22 10 12 1013.0 1013.0 0.4
23/04:00pm 16.6 12.8 7.5 55 4.6 WSW 17 28 9 15 1012.8 1012.8 0.4
23/03:30pm 15.6 11.6 8.4 62 3.7 SW 19 26 10 14 1012.6 1012.6 0.4
23/03:00pm 16.3 12.0 7.8 57 4.3 W 20 37 11 20 1012.4 1012.4 0.4
23/02:30pm 16.1 12.1 8.1 59 4.0 SW 19 26 10 14 1012.5 1012.5 0.4
23/02:00pm 17.5 12.8 7.8 53 4.9 WSW 22 32 12 17 1012.5 1012.5 0.4
23/01:30pm 17.6 13.2 9.0 57 4.5 W 22 32 12 17 1012.7 1012.7 0.4
23/01:00pm 18.3 13.3 9.4 56 4.7 W 26 37 14 20 1012.9 1012.9 0.4
23/12:30pm 17.0 12.0 9.7 62 3.8 SW 26 35 14 19 1013.0 1013.0 0.4
23/12:00pm 17.5 13.2 10.9 65 3.6 WSW 24 33 13 18 1013.0 1013.0 0.4
23/11:30am 17.2 11.6 10.1 63 3.8 WSW 30 44 16 24 1013.6 1013.6 0.4
23/11:00am 15.2 9.9 10.0 71 2.7 WSW 28 37 15 20 1013.6 1013.6 0.2
23/10:30am 16.4 11.3 9.3 63 3.7 WSW 26 33 14 18 1013.4 1013.4 0.2
23/10:00am 15.6 11.4 9.9 69 3.0 SW 22 32 12 17 1013.6 1013.6 0.2
23/09:30am 13.9 11.2 11.8 87 1.1 W 17 26 9 14 1013.7 1013.7 0.2
23/09:00am 15.4 10.6 10.4 72 2.6 SW 26 39 14 21 1013.2 1013.2 9.0
23/08:30am 14.1 11.1 10.5 79 1.9 WSW 17 26 9 14 1013.4 1013.4 9.0
23/08:00am 12.7 9.5 10.1 84 1.3 SW 17 20 9 11 1013.1 1013.1 9.0
23/07:30am 12.5 9.4 10.2 86 1.2 SW 17 30 9 16 1012.9 1012.9 9.0
23/07:00am 12.2 11.2 10.4 89 0.9 WSW 6 9 3 5 1012.4 1012.4 9.0
23/06:30am 11.5 8.6 9.8 89 0.9 WSW 15 20 8 11 1012.0 1012.0 8.8
23/06:16am 11.6 7.1 10.0 90 0.8 WSW 24 39 13 21 1012.1 1012.1 8.8
23/06:06am 11.4 6.8 9.8 90 0.8 SW 24 35 13 19 1012.1 1012.1 8.6
23/06:00am 11.5 6.8 9.4 87 1.1 SW 24 35 13 19 1012.0 1012.0 8.6
23/05:30am 10.8 8.7 8.4 85 1.2 NW 9 11 5 6 1011.6 1011.6 8.0
23/05:00am 10.6 7.6 7.7 82 1.4 NW 13 17 7 9 1011.4 1011.4 8.0
23/04:30am 10.7 8.2 8.1 84 1.3 W 11 15 6 8 1011.3 1011.3 8.0
23/04:00am 11.1 8.6 8.3 83 1.4 W 11 13 6 7 1011.1 1011.1 8.0
23/03:30am 12.0 9.1 8.3 78 1.8 W 13 19 7 10 1011.0 1011.0 8.0
23/03:00am 11.5 8.7 6.8 73 2.2 SW 11 15 6 8 1010.9 1010.9 8.0
23/02:30am 12.0 8.6 7.5 74 2.2 SW 15 19 8 10 1011.2 1011.2 8.0
23/02:00am 12.8 8.9 8.7 76 2.1 WSW 19 24 10 13 1011.2 1011.2 8.0
23/01:30am 12.4 9.4 7.5 72 2.4 WSW 13 17 7 9 1011.1 1011.1 8.0
23/01:00am 12.7 9.6 8.8 77 2.0 WSW 15 22 8 12 1011.3 1011.3 8.0
23/12:30am 12.5 9.0 8.8 78 1.9 WSW 17 28 9 15 1011.4 1011.4 8.0
23/12:00am 12.6 9.6 9.2 80 1.7 WSW 15 20 8 11 1011.4 1011.4 7.8
 
Date/Time
WST
Temp
°C
App
Temp
°C
Dew
Point
°C
Rel
Hum
%
Delta-T
°C
Wind Press
QNH
hPa
Press
MSL
hPa
Rain since
9am
mm
Dir  Spd
km/h
Gust
km/h
Spd
kts
Gust
kts
22/11:30pm 13.5 10.1 9.2 75 2.2 WSW 17 20 9 11 1011.4 1011.4 7.6
22/11:00pm 13.4 9.6 8.9 74 2.3 WSW 19 28 10 15 1011.1 1011.1 7.6
22/10:30pm 13.4 10.9 9.6 78 1.9 W 13 19 7 10 1011.0 1011.0 7.6
22/10:00pm 13.3 10.7 9.4 77 2.0 WSW 13 19 7 10 1011.2 1011.2 7.6
22/09:30pm 13.9 11.5 9.9 77 2.1 WSW 13 17 7 9 1011.1 1011.1 7.6
22/09:00pm 13.4 11.1 10.4 82 1.6 WSW 13 17 7 9 1011.0 1011.0 7.6
22/08:30pm 14.1 10.8 10.9 81 1.7 WSW 19 26 10 14 1010.6 1010.6 7.6
22/08:00pm 14.6 11.3 9.4 71 2.7 W 17 22 9 12 1010.1 1010.1 7.6
22/07:30pm 15.0 11.1 9.6 70 2.8 W 20 30 11 16 1009.7 1009.7 7.6
22/07:00pm 15.0 9.8 8.7 66 3.2 W 26 33 14 18 1009.3 1009.3 7.6
22/06:30pm 15.1 10.3 8.8 66 3.2 W 24 35 13 19 1009.0 1009.0 7.6
22/06:00pm 15.3 10.9 9.0 66 3.2 W 22 32 12 17 1008.7 1008.7 7.6
22/05:34pm 16.0 9.6 8.7 62 3.7 W 32 50 17 27 1008.3 1008.3 7.6
22/05:30pm 15.8 10.3 9.2 65 3.4 W 28 43 15 23 1008.2 1008.2 7.6
22/05:05pm 16.7 9.3 9.9 64 3.6 W 39 59 21 32 1007.7 1007.7 7.6
22/05:00pm 16.6 9.5 9.5 63 3.7 W 37 54 20 29 1007.6 1007.6 7.6
22/04:37pm 17.5 10.4 10.9 65 3.6 W 39 57 21 31 1007.3 1007.3 7.6
22/04:30pm 16.7 8.3 9.6 63 3.7 W 44 57 24 31 1007.0 1007.0 7.6
22/04:04pm 16.9 7.7 8.1 56 4.5 W 46 67 25 36 1006.7 1006.7 7.6

Latest Capital City Observations: Canberra | Sydney | Melbourne | Brisbane | Adelaide | Perth | Hobart | Darwin

Other Formats:

Comma delimited format used in spreadsheet applications
http://www.bom.gov.au/fwo/IDW60901/IDW60901.94612.axf

JavaScript Object Notation format (JSON) in row-major order
http://www.bom.gov.au/fwo/IDW60901/IDW60901.94612.json